createdAt,value
2017-09-17T00:01:21.353Z,43.10
2017-09-17T00:03:48.813Z,42.60
2017-09-17T00:06:16.259Z,43.40
2017-09-17T00:08:43.688Z,44.00
2017-09-17T00:11:11.118Z,45.60
2017-09-17T00:13:39.312Z,45.70
2017-09-17T00:16:06.934Z,45.70
2017-09-17T00:18:34.473Z,47.10
2017-09-17T00:21:01.921Z,46.50
2017-09-17T00:23:29.333Z,46.10
2017-09-17T00:25:56.849Z,46.40
2017-09-17T00:28:24.315Z,46.70
2017-09-17T00:30:51.762Z,47.40
2017-09-17T00:33:19.227Z,46.70
2017-09-17T00:35:46.646Z,46.20
2017-09-17T00:38:14.128Z,46.50
2017-09-17T00:40:41.550Z,45.90
2017-09-17T00:43:09.029Z,47.00
2017-09-17T00:45:36.449Z,47.00
2017-09-17T00:48:03.892Z,46.60
2017-09-17T00:50:31.320Z,46.90
2017-09-17T00:52:58.764Z,46.40
2017-09-17T00:55:26.188Z,46.60
2017-09-17T00:57:53.617Z,46.50
2017-09-17T01:00:21.805Z,46.80
2017-09-17T01:02:49.248Z,46.80
2017-09-17T01:05:16.675Z,47.50
2017-09-17T01:07:44.120Z,48.00
2017-09-17T01:10:11.541Z,48.00
2017-09-17T01:12:39.038Z,47.90
2017-09-17T01:15:06.586Z,47.90
2017-09-17T01:17:34.029Z,48.00
2017-09-17T01:20:01.467Z,48.00
2017-09-17T01:22:28.957Z,48.30
2017-09-17T01:24:56.418Z,48.70
2017-09-17T01:27:23.839Z,48.70
2017-09-17T01:29:51.265Z,48.30
2017-09-17T01:32:18.684Z,48.20
2017-09-17T01:34:46.139Z,48.10
2017-09-17T01:37:13.712Z,48.20
2017-09-17T01:39:41.328Z,47.70
2017-09-17T01:42:08.913Z,46.40
2017-09-17T01:44:36.542Z,46.60
2017-09-17T01:47:04.085Z,46.70
2017-09-17T01:49:31.525Z,46.00
2017-09-17T01:51:58.944Z,45.40
2017-09-17T01:54:26.485Z,45.60
2017-09-17T01:56:53.973Z,46.60
2017-09-17T01:59:21.413Z,45.90
2017-09-17T02:01:48.833Z,46.00
2017-09-17T02:04:16.343Z,46.60
2017-09-17T02:06:44.106Z,47.60
2017-09-17T02:09:11.712Z,47.70
2017-09-17T02:11:39.310Z,48.00
2017-09-17T02:14:06.734Z,47.80
2017-09-17T02:16:34.160Z,47.80
2017-09-17T02:19:01.617Z,47.50
2017-09-17T02:21:29.049Z,46.90
2017-09-17T02:23:56.502Z,47.10
2017-09-17T02:26:24.042Z,46.90
2017-09-17T02:28:51.801Z,46.70
2017-09-17T02:31:19.564Z,47.20
2017-09-17T02:33:47.059Z,47.00
2017-09-17T02:36:14.784Z,46.90
2017-09-17T02:38:42.267Z,47.30
2017-09-17T02:41:09.697Z,47.60
2017-09-17T02:43:37.125Z,47.60
2017-09-17T02:46:04.617Z,47.00
2017-09-17T02:48:32.264Z,47.50
2017-09-17T02:50:59.776Z,47.40
2017-09-17T02:53:27.204Z,48.30
2017-09-17T02:55:54.629Z,47.60
2017-09-17T02:58:22.209Z,47.40
2017-09-17T03:00:49.653Z,47.30
2017-09-17T03:03:17.080Z,46.80
2017-09-17T03:05:44.565Z,46.70
2017-09-17T03:08:11.997Z,46.80
2017-09-17T03:10:39.416Z,46.50
2017-09-17T03:13:06.845Z,46.60
2017-09-17T03:15:34.395Z,46.30
2017-09-17T03:18:01.821Z,46.00
2017-09-17T03:20:29.299Z,45.90
2017-09-17T03:22:56.768Z,46.70
2017-09-17T03:25:24.210Z,47.10
2017-09-17T03:27:51.627Z,47.10
2017-09-17T03:30:19.060Z,47.30
2017-09-17T03:32:46.515Z,48.60
2017-09-17T03:35:13.955Z,49.50
2017-09-17T03:37:41.405Z,49.60
2017-09-17T03:40:08.856Z,49.80
2017-09-17T03:42:36.404Z,49.60
2017-09-17T03:45:03.826Z,49.70
2017-09-17T03:47:31.256Z,50.10
2017-09-17T03:49:58.784Z,50.40
2017-09-17T03:52:26.232Z,50.20
2017-09-17T03:54:53.687Z,50.20
2017-09-17T03:57:21.116Z,50.40
2017-09-17T03:59:48.537Z,50.10
2017-09-17T04:02:15.968Z,49.90
2017-09-17T04:04:43.533Z,51.10
2017-09-17T04:07:10.949Z,50.10
2017-09-17T04:09:38.381Z,49.60
2017-09-17T04:12:05.809Z,50.00
2017-09-17T04:14:33.345Z,52.00
2017-09-17T04:17:01.106Z,53.00
2017-09-17T04:19:28.536Z,52.20
2017-09-17T04:21:55.960Z,51.90
2017-09-17T04:24:23.409Z,51.50
2017-09-17T04:26:50.838Z,51.70
2017-09-17T04:29:18.319Z,50.90
2017-09-17T04:31:45.736Z,50.10
2017-09-17T04:34:13.169Z,49.50
2017-09-17T04:36:40.765Z,49.30
2017-09-17T04:39:08.220Z,48.70
2017-09-17T04:41:35.665Z,48.90
2017-09-17T04:44:03.223Z,49.90
2017-09-17T04:46:30.753Z,49.70
2017-09-17T04:48:58.353Z,49.30
2017-09-17T04:51:25.801Z,50.50
2017-09-17T04:53:53.220Z,51.30
2017-09-17T04:56:20.658Z,51.50
2017-09-17T04:58:48.170Z,52.20
2017-09-17T05:01:15.626Z,51.50
2017-09-17T05:03:43.061Z,52.00
2017-09-17T05:06:10.493Z,51.40
2017-09-17T05:08:37.920Z,51.80
2017-09-17T05:11:05.365Z,51.90
2017-09-17T05:13:32.805Z,52.10
2017-09-17T05:16:00.310Z,51.90
2017-09-17T05:18:27.744Z,52.20
2017-09-17T05:20:55.439Z,52.90
2017-09-17T05:23:23.669Z,53.90
2017-09-17T05:25:51.112Z,53.80
2017-09-17T05:28:18.558Z,54.30
2017-09-17T05:30:46.039Z,54.60
2017-09-17T05:33:13.505Z,55.50
2017-09-17T05:35:41.256Z,55.60
2017-09-17T05:38:08.800Z,55.60
2017-09-17T05:40:36.224Z,55.70
2017-09-17T05:43:03.922Z,55.00
2017-09-17T05:45:31.337Z,54.90
2017-09-17T05:47:58.765Z,55.00
2017-09-17T05:50:26.285Z,55.40
2017-09-17T05:52:53.712Z,55.50
2017-09-17T05:55:21.198Z,55.30
2017-09-17T05:57:48.637Z,54.50
2017-09-17T06:00:16.080Z,54.80
2017-09-17T06:02:43.572Z,55.00
2017-09-17T06:05:11.041Z,55.10
2017-09-17T06:07:38.498Z,56.10
2017-09-17T06:10:06.256Z,56.90
2017-09-17T06:12:34.011Z,57.20
2017-09-17T06:15:01.645Z,57.60
2017-09-17T06:17:29.156Z,57.50
2017-09-17T06:19:56.600Z,57.30
2017-09-17T06:22:24.035Z,57.60
2017-09-17T06:24:51.597Z,58.10
2017-09-17T06:27:19.060Z,57.80
2017-09-17T06:29:46.508Z,56.90
2017-09-17T06:32:13.966Z,57.40
2017-09-17T06:34:41.412Z,56.80
2017-09-17T06:37:08.877Z,57.40
2017-09-17T06:39:36.304Z,57.70
2017-09-17T06:42:03.945Z,57.60
2017-09-17T06:44:32.163Z,57.60
2017-09-17T06:46:59.573Z,57.60
2017-09-17T06:49:27.019Z,57.50
2017-09-17T06:51:54.540Z,57.90
2017-09-17T06:54:21.998Z,57.40
2017-09-17T06:56:49.467Z,57.30
2017-09-17T06:59:16.883Z,57.20
2017-09-17T07:01:44.341Z,56.30
2017-09-17T07:04:11.777Z,55.00
2017-09-17T07:06:39.197Z,54.70
2017-09-17T07:09:06.645Z,54.80
2017-09-17T07:11:34.091Z,54.50
2017-09-17T07:14:01.525Z,53.40
2017-09-17T07:16:29.107Z,52.50
2017-09-17T07:18:56.553Z,51.90
2017-09-17T07:21:23.994Z,51.70
2017-09-17T07:23:51.412Z,51.80
2017-09-17T07:26:18.881Z,52.30
2017-09-17T07:28:46.399Z,51.90
2017-09-17T07:31:14.145Z,51.00
2017-09-17T07:33:41.577Z,51.00
2017-09-17T07:36:09.061Z,50.30
2017-09-17T07:38:36.489Z,49.90
2017-09-17T07:41:03.932Z,49.90
2017-09-17T07:43:31.358Z,49.60
2017-09-17T07:45:58.845Z,50.40
2017-09-17T07:48:26.268Z,49.70
2017-09-17T07:50:53.841Z,48.90
2017-09-17T07:53:21.443Z,49.10
2017-09-17T07:55:48.996Z,49.20
2017-09-17T07:58:16.470Z,48.50
2017-09-17T08:00:43.905Z,49.60
2017-09-17T08:03:11.358Z,49.70
2017-09-17T08:05:38.818Z,48.90
2017-09-17T08:08:06.249Z,48.70
2017-09-17T08:10:33.729Z,48.40
2017-09-17T08:13:01.840Z,47.80
2017-09-17T08:15:29.289Z,46.60
2017-09-17T08:17:56.773Z,46.00
2017-09-17T08:20:24.513Z,45.80
2017-09-17T08:22:51.992Z,45.10
2017-09-17T08:25:19.627Z,45.70
2017-09-17T08:27:47.137Z,46.40
2017-09-17T08:30:14.577Z,46.00
2017-09-17T08:32:42.014Z,46.00
2017-09-17T08:35:09.560Z,46.00
2017-09-17T08:37:37.013Z,46.10
2017-09-17T08:40:04.462Z,45.10
2017-09-17T08:42:32.225Z,45.20
2017-09-17T08:44:59.673Z,44.10
2017-09-17T08:47:27.159Z,44.80
2017-09-17T08:49:54.600Z,44.50
2017-09-17T08:52:22.047Z,44.20
2017-09-17T08:54:49.481Z,43.50
2017-09-17T08:57:16.932Z,43.20
2017-09-17T08:59:44.387Z,42.90
2017-09-17T09:02:11.821Z,43.30
2017-09-17T09:04:43.316Z,43.20
2017-09-17T09:07:11.152Z,43.30
2017-09-17T09:09:38.786Z,43.40
2017-09-17T09:12:06.217Z,42.50
2017-09-17T09:14:33.708Z,41.70
2017-09-17T09:17:01.137Z,40.70
2017-09-17T09:19:28.634Z,40.50
2017-09-17T09:21:56.048Z,41.20
2017-09-17T09:24:23.512Z,42.40
2017-09-17T09:26:50.942Z,40.70
2017-09-17T09:29:18.415Z,39.80
2017-09-17T09:31:45.964Z,38.20
2017-09-17T09:34:13.403Z,37.50
2017-09-17T09:36:40.836Z,37.10
2017-09-17T09:39:08.279Z,37.90
2017-09-17T09:41:35.798Z,36.90
2017-09-17T09:44:03.546Z,37.20
2017-09-17T09:46:30.992Z,37.40
2017-09-17T09:48:58.424Z,37.00
2017-09-17T09:51:25.863Z,36.80
2017-09-17T09:53:53.288Z,36.90
2017-09-17T09:56:20.836Z,36.70
2017-09-17T09:58:48.465Z,36.10
2017-09-17T10:01:15.949Z,36.10
2017-09-17T10:03:43.451Z,36.50
2017-09-17T10:06:10.880Z,34.70
2017-09-17T10:08:38.453Z,36.40
2017-09-17T10:11:05.867Z,35.40
2017-09-17T10:13:33.327Z,36.00
2017-09-17T10:16:00.733Z,36.00
2017-09-17T10:18:28.185Z,34.30
2017-09-17T10:20:55.626Z,31.90
2017-09-17T10:23:23.049Z,32.10
2017-09-17T10:25:50.517Z,33.00
2017-09-17T10:28:17.976Z,31.80
2017-09-17T10:30:45.425Z,33.40
2017-09-17T10:33:12.903Z,34.90
2017-09-17T10:35:40.337Z,34.70
2017-09-17T10:38:07.896Z,31.90
2017-09-17T10:40:35.377Z,30.20
2017-09-17T10:43:03.101Z,29.00
2017-09-17T10:45:30.535Z,28.50
2017-09-17T10:47:58.030Z,29.90
2017-09-17T10:50:25.470Z,25.80
2017-09-17T10:52:52.909Z,26.00
2017-09-17T10:55:20.401Z,25.50
2017-09-17T10:57:48.042Z,23.90
2017-09-17T11:00:15.545Z,23.80
2017-09-17T11:02:42.998Z,22.40
2017-09-17T11:05:10.533Z,21.90
2017-09-17T11:07:37.981Z,21.90
2017-09-17T11:10:05.413Z,22.10
2017-09-17T11:12:32.850Z,19.90
2017-09-17T11:15:00.265Z,19.80
2017-09-17T11:17:27.721Z,18.30
2017-09-17T11:19:55.140Z,17.90
2017-09-17T11:22:22.572Z,18.70
2017-09-17T11:24:50.755Z,17.90
2017-09-17T11:27:18.201Z,17.90
2017-09-17T11:29:45.619Z,15.70
2017-09-17T11:32:13.066Z,14.00
2017-09-17T11:34:40.488Z,12.90
2017-09-17T11:37:07.939Z,13.50
2017-09-17T11:39:36.158Z,15.60
2017-09-17T11:42:03.606Z,15.60
2017-09-17T11:44:31.020Z,13.60
2017-09-17T11:46:58.472Z,14.70
2017-09-17T11:49:25.969Z,15.20
2017-09-17T11:51:53.413Z,15.40
2017-09-17T11:54:20.889Z,15.80
2017-09-17T11:56:48.317Z,16.30
2017-09-17T11:59:16.725Z,17.90
2017-09-17T12:01:44.244Z,17.90
2017-09-17T12:04:11.848Z,17.80
2017-09-17T12:06:39.266Z,18.00
2017-09-17T12:09:06.870Z,17.60
2017-09-17T12:11:34.685Z,19.10
2017-09-17T12:14:02.093Z,18.30
2017-09-17T12:16:30.450Z,19.40
2017-09-17T12:18:57.905Z,19.20
2017-09-17T12:21:25.329Z,20.50
2017-09-17T12:23:52.781Z,19.10
2017-09-17T12:26:20.229Z,19.40
2017-09-17T12:28:47.657Z,18.20
2017-09-17T12:31:15.095Z,19.90
2017-09-17T12:33:43.058Z,20.70
2017-09-17T12:36:10.478Z,21.70
2017-09-17T12:38:37.920Z,22.00
2017-09-17T12:41:05.529Z,22.30
2017-09-17T12:43:33.010Z,21.40
2017-09-17T12:46:00.533Z,19.60
2017-09-17T12:48:28.004Z,20.30
2017-09-17T12:50:55.486Z,20.90
2017-09-17T12:53:22.898Z,21.90
2017-09-17T12:55:50.355Z,23.40
2017-09-17T12:58:17.801Z,23.90
2017-09-17T13:00:45.268Z,24.60
2017-09-17T13:03:12.692Z,23.80
2017-09-17T13:05:40.558Z,24.10
2017-09-17T13:08:08.177Z,24.70
2017-09-17T13:10:35.717Z,24.60
2017-09-17T13:13:03.162Z,23.60
2017-09-17T13:15:30.857Z,21.90
2017-09-17T13:17:58.387Z,20.60
2017-09-17T13:20:25.815Z,19.40
2017-09-17T13:22:53.238Z,18.70
2017-09-17T13:25:20.664Z,18.40
2017-09-17T13:27:48.084Z,18.20
2017-09-17T13:30:15.693Z,18.10
2017-09-17T13:32:43.977Z,18.20
2017-09-17T13:35:11.428Z,17.40
2017-09-17T13:37:38.861Z,18.40
2017-09-17T13:40:06.316Z,18.90
2017-09-17T13:42:33.794Z,17.70
2017-09-17T13:45:00.772Z,16.60
2017-09-17T13:47:28.204Z,15.90
2017-09-17T13:49:55.801Z,16.80
2017-09-17T13:52:23.320Z,16.90
2017-09-17T13:54:50.757Z,16.70
2017-09-17T13:57:17.754Z,11.90
2017-09-17T14:02:49.536Z,11.50
2017-09-17T14:05:34.380Z,12.80
2017-09-17T14:08:16.237Z,14.20
2017-09-17T14:10:45.915Z,14.50
2017-09-17T14:13:12.894Z,12.90
2017-09-17T14:15:39.894Z,11.90
2017-09-17T14:18:06.881Z,11.90
2017-09-17T14:20:33.856Z,8.90
2017-09-17T14:23:00.848Z,8.30
2017-09-17T14:25:28.145Z,8.90
2017-09-17T14:27:55.124Z,8.10
2017-09-17T14:30:22.129Z,9.60
2017-09-17T14:32:49.132Z,10.20
2017-09-17T14:35:16.105Z,9.50
2017-09-17T14:37:43.152Z,9.90
2017-09-17T14:40:10.241Z,9.40
2017-09-17T14:42:37.229Z,10.50
2017-09-17T14:45:04.426Z,10.50
2017-09-17T14:47:31.853Z,10.90
2017-09-17T14:49:59.445Z,11.90
2017-09-17T14:52:27.183Z,11.10
2017-09-17T14:54:54.621Z,13.10
2017-09-17T14:57:22.079Z,12.70
2017-09-17T14:59:49.534Z,13.00
2017-09-17T15:02:16.948Z,13.30
2017-09-17T15:04:44.447Z,14.10
2017-09-17T15:07:11.904Z,14.10
2017-09-17T15:09:39.353Z,14.40
2017-09-17T15:12:06.857Z,10.60
2017-09-17T15:14:34.573Z,11.50
2017-09-17T15:17:01.997Z,10.10
2017-09-17T15:19:29.457Z,9.30
2017-09-17T15:21:57.064Z,8.80
2017-09-17T15:24:24.580Z,8.00
2017-09-17T15:26:52.050Z,7.50
2017-09-17T15:29:19.560Z,8.80
2017-09-17T15:31:47.009Z,8.70
2017-09-17T15:34:14.424Z,10.10
2017-09-17T15:36:41.922Z,9.50
2017-09-17T15:39:09.440Z,10.90
2017-09-17T15:41:36.873Z,11.20
2017-09-17T15:44:04.303Z,10.30
2017-09-17T15:46:31.749Z,10.30
2017-09-17T15:48:59.970Z,12.00
2017-09-17T15:51:27.385Z,12.00
2017-09-17T15:53:54.821Z,12.70
2017-09-17T15:56:23.784Z,12.60
2017-09-17T15:58:51.210Z,12.50
2017-09-17T16:01:18.645Z,13.50
2017-09-17T16:03:46.101Z,14.00
2017-09-17T16:06:13.661Z,13.90
2017-09-17T16:08:41.073Z,13.90
2017-09-17T16:11:08.510Z,14.00
2017-09-17T16:13:35.990Z,13.80
2017-09-17T16:16:03.466Z,14.30
2017-09-17T16:18:30.896Z,15.00
2017-09-17T16:20:58.328Z,15.50
2017-09-17T16:23:25.812Z,15.70
2017-09-17T16:25:53.264Z,15.90
2017-09-17T16:28:20.701Z,15.90
2017-09-17T16:30:48.134Z,16.10
2017-09-17T16:33:15.561Z,16.20
2017-09-17T16:35:43.782Z,17.00
2017-09-17T16:38:11.469Z,17.00
2017-09-17T16:40:38.930Z,18.60
2017-09-17T16:43:06.397Z,18.10
2017-09-17T16:45:33.839Z,18.60
2017-09-17T16:48:01.284Z,19.90
2017-09-17T16:50:28.763Z,20.50
2017-09-17T16:52:56.227Z,20.50
2017-09-17T16:55:23.669Z,20.70
2017-09-17T16:57:51.102Z,21.10
2017-09-17T17:00:18.584Z,20.50
2017-09-17T17:02:46.029Z,20.10
2017-09-17T17:05:13.456Z,20.00
2017-09-17T17:07:40.890Z,20.00
2017-09-17T17:10:08.308Z,20.10
2017-09-17T17:12:35.773Z,20.20
2017-09-17T17:15:03.203Z,20.50
2017-09-17T17:17:30.643Z,21.00
2017-09-17T17:19:58.098Z,21.40
2017-09-17T17:22:25.521Z,21.60
2017-09-17T17:24:53.756Z,22.40
2017-09-17T17:27:21.208Z,22.40
2017-09-17T17:29:48.666Z,23.00
2017-09-17T17:32:16.085Z,23.70
2017-09-17T17:34:44.498Z,23.50
2017-09-17T17:37:11.958Z,22.60
2017-09-17T17:39:39.408Z,22.60
2017-09-17T17:42:08.031Z,22.70
2017-09-17T17:44:35.485Z,22.40
2017-09-17T17:47:03.921Z,23.40
2017-09-17T17:49:31.379Z,23.40
2017-09-17T17:51:58.808Z,24.00
2017-09-17T17:54:26.263Z,24.80
2017-09-17T17:56:53.707Z,23.70
2017-09-17T17:59:21.141Z,25.00
2017-09-17T18:01:48.575Z,26.00
2017-09-17T18:04:16.021Z,26.70
2017-09-17T18:06:43.481Z,27.40
2017-09-17T18:09:10.967Z,30.10
2017-09-17T18:11:38.502Z,30.50
2017-09-17T18:14:06.121Z,25.60
2017-09-17T18:16:33.621Z,26.20
2017-09-17T18:19:01.160Z,22.30
2017-09-17T18:21:28.622Z,22.50
2017-09-17T18:23:56.149Z,22.90
2017-09-17T18:26:23.837Z,24.80
2017-09-17T18:28:51.277Z,25.80
2017-09-17T18:31:18.758Z,27.10
2017-09-17T18:33:46.180Z,28.60
2017-09-17T18:36:13.605Z,29.30
2017-09-17T18:38:41.036Z,30.00
2017-09-17T18:41:08.581Z,31.80
2017-09-17T18:43:36.040Z,31.50
2017-09-17T18:46:03.488Z,31.50
2017-09-17T18:48:31.251Z,32.60
2017-09-17T18:51:04.597Z,32.70
2017-09-17T18:53:32.313Z,32.40
2017-09-17T18:55:59.765Z,32.50
2017-09-17T18:58:27.458Z,32.90
2017-09-17T19:00:54.989Z,33.50
2017-09-17T19:03:22.651Z,32.90
2017-09-17T19:05:51.389Z,34.50
2017-09-17T19:08:18.837Z,34.90
2017-09-17T19:10:46.362Z,34.60
2017-09-17T19:13:13.791Z,33.90
2017-09-17T19:15:41.230Z,33.40
2017-09-17T19:18:08.681Z,34.40
2017-09-17T19:20:36.118Z,34.90
2017-09-17T19:23:03.549Z,35.60
2017-09-17T19:25:32.004Z,34.90
2017-09-17T19:27:59.777Z,34.90
2017-09-17T19:30:27.231Z,34.90
2017-09-17T19:32:54.697Z,35.20
2017-09-17T19:35:22.145Z,35.60
2017-09-17T19:37:49.573Z,35.80
2017-09-17T19:40:17.008Z,35.80
2017-09-17T19:42:44.480Z,35.60
2017-09-17T19:45:11.915Z,35.80
2017-09-17T19:47:39.445Z,36.50
2017-09-17T19:50:07.076Z,35.40
2017-09-17T19:52:34.519Z,34.90
2017-09-17T19:55:02.035Z,37.90
2017-09-17T19:57:29.542Z,38.70
2017-09-17T19:59:57.289Z,39.50
2017-09-17T20:02:24.755Z,39.40
2017-09-17T20:04:52.177Z,39.40
2017-09-17T20:07:19.787Z,39.40
2017-09-17T20:09:47.357Z,39.40
2017-09-17T20:12:15.124Z,39.40
2017-09-17T20:14:42.581Z,39.40
2017-09-17T20:17:10.020Z,39.60
2017-09-17T20:19:37.589Z,39.80
2017-09-17T20:22:05.041Z,37.80
2017-09-17T20:24:32.485Z,37.30
2017-09-17T20:26:59.930Z,36.90
2017-09-17T20:29:27.356Z,36.50
2017-09-17T20:31:54.789Z,35.10
2017-09-17T20:34:22.229Z,35.00
2017-09-17T20:36:49.665Z,34.70
2017-09-17T20:39:17.229Z,34.80
2017-09-17T20:41:44.666Z,35.00
2017-09-17T20:44:12.150Z,34.90
2017-09-17T20:46:39.781Z,35.10
2017-09-17T20:49:07.361Z,35.80
2017-09-17T20:51:35.121Z,36.40
2017-09-17T20:54:02.569Z,37.20
2017-09-17T20:56:30.036Z,37.60
2017-09-17T20:58:57.809Z,36.00
2017-09-17T21:01:25.256Z,34.80
2017-09-17T21:03:52.882Z,34.30
2017-09-17T21:06:20.387Z,34.10
2017-09-17T21:08:47.951Z,33.70
2017-09-17T21:11:15.694Z,34.20
2017-09-17T21:13:43.135Z,34.50
2017-09-17T21:16:10.574Z,35.00
2017-09-17T21:18:38.064Z,34.90
2017-09-17T21:21:05.513Z,34.40
2017-09-17T21:23:32.961Z,34.70
2017-09-17T21:26:00.449Z,34.70
2017-09-17T21:28:27.889Z,35.90
2017-09-17T21:30:55.349Z,36.60
2017-09-17T21:33:22.897Z,37.80
2017-09-17T21:35:50.462Z,37.40
2017-09-17T21:38:17.900Z,38.60
2017-09-17T21:40:45.377Z,39.10
2017-09-17T21:43:12.837Z,39.20
2017-09-17T21:45:40.297Z,38.30
2017-09-17T21:48:07.852Z,38.00
2017-09-17T21:50:35.611Z,37.00
2017-09-17T21:53:03.073Z,37.80
2017-09-17T21:55:30.725Z,38.40
2017-09-17T21:57:58.202Z,37.00
2017-09-17T22:00:25.747Z,37.30
2017-09-17T22:02:53.169Z,37.30
2017-09-17T22:05:20.605Z,37.70
2017-09-17T22:07:48.044Z,38.20
2017-09-17T22:10:15.572Z,37.60
2017-09-17T22:12:43.002Z,38.50
2017-09-17T22:15:10.438Z,38.70
2017-09-17T22:17:37.861Z,38.70
2017-09-17T22:20:05.300Z,38.70
2017-09-17T22:22:32.758Z,38.70
2017-09-17T22:25:00.208Z,39.30
2017-09-17T22:27:27.665Z,39.40
2017-09-17T22:29:55.103Z,38.50
2017-09-17T22:32:22.577Z,38.50
2017-09-17T22:34:50.128Z,38.50
2017-09-17T22:37:17.580Z,38.50
2017-09-17T22:39:45.043Z,38.50
2017-09-17T22:42:12.468Z,38.80
2017-09-17T22:44:39.948Z,38.50
2017-09-17T22:47:07.380Z,39.50
2017-09-17T22:49:34.831Z,39.40
2017-09-17T22:52:02.316Z,39.60
2017-09-17T22:54:29.747Z,40.00
2017-09-17T22:56:57.232Z,39.70
2017-09-17T22:59:24.670Z,39.50
2017-09-17T23:01:52.116Z,39.80
2017-09-17T23:04:19.541Z,40.40
2017-09-17T23:06:46.984Z,40.30
2017-09-17T23:09:14.449Z,40.70
2017-09-17T23:11:41.872Z,40.90
2017-09-17T23:14:09.323Z,40.20
2017-09-17T23:16:36.788Z,40.00
2017-09-17T23:19:04.354Z,39.60
2017-09-17T23:21:31.801Z,40.00
2017-09-17T23:23:59.350Z,40.00
2017-09-17T23:26:27.021Z,40.40
2017-09-17T23:28:54.461Z,41.00
2017-09-17T23:31:21.885Z,40.80
2017-09-17T23:33:49.321Z,41.10
2017-09-17T23:36:16.758Z,41.30
2017-09-17T23:38:44.244Z,40.80
2017-09-17T23:41:11.657Z,41.20
2017-09-17T23:43:39.093Z,41.60
2017-09-17T23:46:06.670Z,41.50
2017-09-17T23:48:34.432Z,41.40
2017-09-17T23:51:01.892Z,41.40
2017-09-17T23:53:35.117Z,41.00
2017-09-17T23:56:02.556Z,40.60
2017-09-17T23:58:29.986Z,40.50
